Aviation Digital Data Service (ADDS)

Output produced by METARs form (2230 UTC 28 July 2014)
found at http://aviationweather.gov/adds/metars/
 
KRDU 281740Z 2818/2918 29011G19KT P6SM SCT050 
     FM290000 31001KT P6SM FEW060 SCT100